sensor_id;sensor_type;location;lat;lon;timestamp;P1;durP1;ratioP1;P2;durP2;ratioP2
25972;SDS011;13765;51.166;4.466;2023-02-26T00:02:24;7.70;;;3.20;;
25972;SDS011;13765;51.166;4.466;2023-02-26T00:04:49;5.40;;;2.58;;
25972;SDS011;13765;51.166;4.466;2023-02-26T00:07:15;8.00;;;3.45;;
25972;SDS011;13765;51.166;4.466;2023-02-26T00:09:40;7.43;;;3.70;;
25972;SDS011;13765;51.166;4.466;2023-02-26T00:12:09;10.60;;;3.58;;
25972;SDS011;13765;51.166;4.466;2023-02-26T00:14:36;9.38;;;3.08;;
25972;SDS011;13765;51.166;4.466;2023-02-26T00:19:49;6.90;;;2.55;;
25972;SDS011;13765;51.166;4.466;2023-02-26T00:22:15;7.15;;;2.20;;
25972;SDS011;13765;51.166;4.466;2023-02-26T00:24:42;7.40;;;3.17;;
25972;SDS011;13765;51.166;4.466;2023-02-26T00:27:09;6.07;;;3.00;;
25972;SDS011;13765;51.166;4.466;2023-02-26T00:29:36;4.57;;;2.75;;
25972;SDS011;13765;51.166;4.466;2023-02-26T00:32:02;7.43;;;2.60;;
25972;SDS011;13765;51.166;4.466;2023-02-26T00:34:28;3.88;;;2.75;;
25972;SDS011;13765;51.166;4.466;2023-02-26T00:42:10;8.57;;;2.60;;
25972;SDS011;13765;51.166;4.466;2023-02-26T00:44:39;10.68;;;2.83;;
25972;SDS011;13765;51.166;4.466;2023-02-26T00:55:19;5.55;;;2.90;;
25972;SDS011;13765;51.166;4.466;2023-02-26T00:57:44;10.30;;;2.70;;
25972;SDS011;13765;51.166;4.466;2023-02-26T01:00:10;11.57;;;4.05;;
25972;SDS011;13765;51.166;4.466;2023-02-26T01:02:37;2.80;;;1.92;;
25972;SDS011;13765;51.166;4.466;2023-02-26T01:05:06;8.40;;;3.40;;
25972;SDS011;13765;51.166;4.466;2023-02-26T01:08:19;4.85;;;2.58;;
25972;SDS011;13765;51.166;4.466;2023-02-26T01:10:21;4.90;;;2.85;;
25972;SDS011;13765;51.166;4.466;2023-02-26T01:12:50;7.88;;;3.03;;
25972;SDS011;13765;51.166;4.466;2023-02-26T01:15:16;5.93;;;2.45;;
25972;SDS011;13765;51.166;4.466;2023-02-26T01:20:33;5.63;;;2.75;;
25972;SDS011;13765;51.166;4.466;2023-02-26T01:23:08;22.35;;;3.50;;
25972;SDS011;13765;51.166;4.466;2023-02-26T01:25:47;13.60;;;4.03;;
25972;SDS011;13765;51.166;4.466;2023-02-26T01:28:19;9.70;;;2.65;;
25972;SDS011;13765;51.166;4.466;2023-02-26T01:30:45;8.50;;;3.28;;
25972;SDS011;13765;51.166;4.466;2023-02-26T01:48:58;7.72;;;3.00;;
25972;SDS011;13765;51.166;4.466;2023-02-26T01:54:13;4.97;;;2.85;;
25972;SDS011;13765;51.166;4.466;2023-02-26T01:56:43;5.53;;;2.80;;
25972;SDS011;13765;51.166;4.466;2023-02-26T01:59:12;5.22;;;2.97;;
25972;SDS011;13765;51.166;4.466;2023-02-26T02:01:50;3.05;;;2.10;;
25972;SDS011;13765;51.166;4.466;2023-02-26T02:04:17;5.70;;;2.08;;
25972;SDS011;13765;51.166;4.466;2023-02-26T02:06:46;8.23;;;3.10;;
25972;SDS011;13765;51.166;4.466;2023-02-26T02:09:15;6.60;;;2.28;;
25972;SDS011;13765;51.166;4.466;2023-02-26T02:11:52;3.90;;;2.83;;
25972;SDS011;13765;51.166;4.466;2023-02-26T02:14:30;5.85;;;2.38;;
25972;SDS011;13765;51.166;4.466;2023-02-26T02:17:18;3.28;;;2.25;;
25972;SDS011;13765;51.166;4.466;2023-02-26T02:31:27;8.45;;;2.45;;
25972;SDS011;13765;51.166;4.466;2023-02-26T02:34:02;6.85;;;2.42;;
25972;SDS011;13765;51.166;4.466;2023-02-26T02:36:56;3.95;;;2.13;;
25972;SDS011;13765;51.166;4.466;2023-02-26T02:39:29;3.80;;;2.05;;
25972;SDS011;13765;51.166;4.466;2023-02-26T02:42:07;4.72;;;2.78;;
25972;SDS011;13765;51.166;4.466;2023-02-26T02:44:46;3.15;;;2.25;;
25972;SDS011;13765;51.166;4.466;2023-02-26T02:47:16;5.75;;;2.35;;
25972;SDS011;13765;51.166;4.466;2023-02-26T02:54:53;6.57;;;3.10;;
25972;SDS011;13765;51.166;4.466;2023-02-26T02:57:29;4.25;;;2.53;;
25972;SDS011;13765;51.166;4.466;2023-02-26T03:00:08;7.18;;;2.35;;
25972;SDS011;13765;51.166;4.466;2023-02-26T03:03:18;3.63;;;2.10;;
25972;SDS011;13765;51.166;4.466;2023-02-26T03:05:27;2.28;;;1.50;;
25972;SDS011;13765;51.166;4.466;2023-02-26T03:07:55;5.88;;;1.83;;
25972;SDS011;13765;51.166;4.466;2023-02-26T03:10:24;6.72;;;2.63;;
25972;SDS011;13765;51.166;4.466;2023-02-26T03:12:50;5.57;;;2.55;;
25972;SDS011;13765;51.166;4.466;2023-02-26T03:15:16;13.10;;;2.47;;
25972;SDS011;13765;51.166;4.466;2023-02-26T03:17:53;3.53;;;2.15;;
25972;SDS011;13765;51.166;4.466;2023-02-26T03:20:29;9.00;;;2.50;;
25972;SDS011;13765;51.166;4.466;2023-02-26T03:31:07;5.70;;;2.45;;
25972;SDS011;13765;51.166;4.466;2023-02-26T03:33:49;3.83;;;2.35;;
25972;SDS011;13765;51.166;4.466;2023-02-26T03:36:34;4.57;;;2.22;;
25972;SDS011;13765;51.166;4.466;2023-02-26T03:41:38;1.90;;;1.80;;
25972;SDS011;13765;51.166;4.466;2023-02-26T03:44:21;13.98;;;1.88;;
25972;SDS011;13765;51.166;4.466;2023-02-26T03:46:51;6.25;;;2.10;;
25972;SDS011;13765;51.166;4.466;2023-02-26T03:49:23;9.20;;;2.30;;
25972;SDS011;13765;51.166;4.466;2023-02-26T03:51:55;3.15;;;2.65;;
25972;SDS011;13765;51.166;4.466;2023-02-26T03:54:25;2.95;;;1.70;;
25972;SDS011;13765;51.166;4.466;2023-02-26T03:56:57;4.43;;;2.00;;
25972;SDS011;13765;51.166;4.466;2023-02-26T03:59:27;5.93;;;2.08;;
25972;SDS011;13765;51.166;4.466;2023-02-26T04:01:55;4.13;;;2.03;;
25972;SDS011;13765;51.166;4.466;2023-02-26T04:04:45;3.42;;;2.40;;
25972;SDS011;13765;51.166;4.466;2023-02-26T04:07:31;5.15;;;1.75;;
25972;SDS011;13765;51.166;4.466;2023-02-26T04:09:57;5.07;;;2.00;;
25972;SDS011;13765;51.166;4.466;2023-02-26T04:12:23;3.58;;;1.88;;
25972;SDS011;13765;51.166;4.466;2023-02-26T04:14:53;6.80;;;3.05;;
25972;SDS011;13765;51.166;4.466;2023-02-26T04:17:24;6.85;;;2.03;;
25972;SDS011;13765;51.166;4.466;2023-02-26T04:19:49;3.80;;;2.40;;
25972;SDS011;13765;51.166;4.466;2023-02-26T04:22:15;2.45;;;1.58;;
25972;SDS011;13765;51.166;4.466;2023-02-26T04:24:41;8.20;;;2.35;;
25972;SDS011;13765;51.166;4.466;2023-02-26T04:27:06;3.58;;;1.92;;
25972;SDS011;13765;51.166;4.466;2023-02-26T04:29:34;3.65;;;2.22;;
25972;SDS011;13765;51.166;4.466;2023-02-26T04:32:01;7.75;;;2.15;;
25972;SDS011;13765;51.166;4.466;2023-02-26T04:34:27;6.00;;;3.08;;
25972;SDS011;13765;51.166;4.466;2023-02-26T04:36:52;5.63;;;2.15;;
25972;SDS011;13765;51.166;4.466;2023-02-26T04:39:18;3.33;;;2.22;;
25972;SDS011;13765;51.166;4.466;2023-02-26T04:41:43;7.18;;;2.15;;
25972;SDS011;13765;51.166;4.466;2023-02-26T04:44:09;17.95;;;2.90;;
25972;SDS011;13765;51.166;4.466;2023-02-26T04:46:37;2.78;;;1.88;;
25972;SDS011;13765;51.166;4.466;2023-02-26T04:49:03;5.03;;;2.95;;
25972;SDS011;13765;51.166;4.466;2023-02-26T04:51:28;3.67;;;1.38;;
25972;SDS011;13765;51.166;4.466;2023-02-26T04:53:57;4.00;;;2.30;;
25972;SDS011;13765;51.166;4.466;2023-02-26T04:56:22;1.40;;;1.40;;
25972;SDS011;13765;51.166;4.466;2023-02-26T04:58:52;4.03;;;2.20;;
25972;SDS011;13765;51.166;4.466;2023-02-26T05:01:17;6.05;;;2.53;;
25972;SDS011;13765;51.166;4.466;2023-02-26T05:03:43;5.68;;;1.73;;
25972;SDS011;13765;51.166;4.466;2023-02-26T05:06:11;2.95;;;1.95;;
25972;SDS011;13765;51.166;4.466;2023-02-26T05:08:37;6.40;;;2.50;;
25972;SDS011;13765;51.166;4.466;2023-02-26T05:11:06;8.30;;;2.17;;
25972;SDS011;13765;51.166;4.466;2023-02-26T05:13:31;3.60;;;1.83;;
25972;SDS011;13765;51.166;4.466;2023-02-26T05:15:57;3.05;;;2.13;;
25972;SDS011;13765;51.166;4.466;2023-02-26T05:18:25;7.32;;;2.47;;
25972;SDS011;13765;51.166;4.466;2023-02-26T05:20:52;4.47;;;2.20;;
25972;SDS011;13765;51.166;4.466;2023-02-26T05:23:18;4.82;;;1.70;;
25972;SDS011;13765;51.166;4.466;2023-02-26T05:25:44;1.20;;;1.20;;
25972;SDS011;13765;51.166;4.466;2023-02-26T05:28:13;4.00;;;2.15;;
25972;SDS011;13765;51.166;4.466;2023-02-26T05:30:40;2.80;;;1.75;;
25972;SDS011;13765;51.166;4.466;2023-02-26T05:33:06;3.90;;;2.13;;
25972;SDS011;13765;51.166;4.466;2023-02-26T05:35:34;1.40;;;1.30;;
25972;SDS011;13765;51.166;4.466;2023-02-26T05:38:00;6.15;;;2.25;;
25972;SDS011;13765;51.166;4.466;2023-02-26T05:40:28;7.68;;;1.95;;
25972;SDS011;13765;51.166;4.466;2023-02-26T05:42:56;2.10;;;1.52;;
25972;SDS011;13765;51.166;4.466;2023-02-26T05:45:22;5.28;;;1.77;;
25972;SDS011;13765;51.166;4.466;2023-02-26T05:47:50;1.90;;;1.60;;
25972;SDS011;13765;51.166;4.466;2023-02-26T05:50:18;4.30;;;2.30;;
25972;SDS011;13765;51.166;4.466;2023-02-26T05:52:43;1.52;;;1.30;;
25972;SDS011;13765;51.166;4.466;2023-02-26T05:55:09;1.70;;;1.60;;
25972;SDS011;13765;51.166;4.466;2023-02-26T05:57:37;3.65;;;1.95;;
25972;SDS011;13765;51.166;4.466;2023-02-26T06:00:03;4.57;;;1.77;;
25972;SDS011;13765;51.166;4.466;2023-02-26T06:02:30;3.25;;;1.75;;
25972;SDS011;13765;51.166;4.466;2023-02-26T06:04:56;4.22;;;1.52;;
25972;SDS011;13765;51.166;4.466;2023-02-26T06:07:21;3.50;;;1.83;;
25972;SDS011;13765;51.166;4.466;2023-02-26T06:09:48;1.50;;;1.20;;
25972;SDS011;13765;51.166;4.466;2023-02-26T06:12:14;1.60;;;1.50;;
25972;SDS011;13765;51.166;4.466;2023-02-26T06:14:42;2.25;;;1.55;;
25972;SDS011;13765;51.166;4.466;2023-02-26T06:17:10;2.00;;;1.10;;
25972;SDS011;13765;51.166;4.466;2023-02-26T06:19:35;3.28;;;1.83;;
25972;SDS011;13765;51.166;4.466;2023-02-26T06:22:03;2.10;;;1.50;;
25972;SDS011;13765;51.166;4.466;2023-02-26T06:24:29;5.18;;;1.60;;
25972;SDS011;13765;51.166;4.466;2023-02-26T06:26:54;5.22;;;1.23;;
25972;SDS011;13765;51.166;4.466;2023-02-26T06:29:20;3.75;;;1.30;;
25972;SDS011;13765;51.166;4.466;2023-02-26T06:31:47;3.08;;;1.35;;
25972;SDS011;13765;51.166;4.466;2023-02-26T06:34:13;1.75;;;1.65;;
25972;SDS011;13765;51.166;4.466;2023-02-26T06:36:39;4.18;;;2.53;;
25972;SDS011;13765;51.166;4.466;2023-02-26T06:39:07;4.43;;;1.85;;
25972;SDS011;13765;51.166;4.466;2023-02-26T06:41:36;2.78;;;1.52;;
25972;SDS011;13765;51.166;4.466;2023-02-26T06:44:02;5.03;;;1.80;;
25972;SDS011;13765;51.166;4.466;2023-02-26T06:46:30;7.30;;;2.25;;
25972;SDS011;13765;51.166;4.466;2023-02-26T06:48:59;1.55;;;1.48;;
25972;SDS011;13765;51.166;4.466;2023-02-26T06:51:24;8.23;;;2.40;;
25972;SDS011;13765;51.166;4.466;2023-02-26T06:53:50;1.58;;;1.35;;
25972;SDS011;13765;51.166;4.466;2023-02-26T06:56:16;2.00;;;1.83;;
25972;SDS011;13765;51.166;4.466;2023-02-26T06:58:41;1.38;;;1.38;;
25972;SDS011;13765;51.166;4.466;2023-02-26T07:01:07;1.45;;;1.30;;
25972;SDS011;13765;51.166;4.466;2023-02-26T07:03:32;1.05;;;1.05;;
25972;SDS011;13765;51.166;4.466;2023-02-26T07:05:58;1.30;;;1.20;;
25972;SDS011;13765;51.166;4.466;2023-02-26T07:08:26;6.70;;;2.50;;
25972;SDS011;13765;51.166;4.466;2023-02-26T07:10:54;1.90;;;1.42;;
25972;SDS011;13765;51.166;4.466;2023-02-26T07:13:19;7.00;;;1.70;;
25972;SDS011;13765;51.166;4.466;2023-02-26T07:15:45;1.20;;;1.10;;
25972;SDS011;13765;51.166;4.466;2023-02-26T07:18:15;1.13;;;0.95;;
25972;SDS011;13765;51.166;4.466;2023-02-26T07:20:41;3.42;;;1.33;;
25972;SDS011;13765;51.166;4.466;2023-02-26T07:23:12;1.52;;;1.15;;
25972;SDS011;13765;51.166;4.466;2023-02-26T07:25:37;1.00;;;1.00;;
25972;SDS011;13765;51.166;4.466;2023-02-26T07:28:03;2.05;;;1.45;;
25972;SDS011;13765;51.166;4.466;2023-02-26T07:30:31;2.85;;;1.70;;
25972;SDS011;13765;51.166;4.466;2023-02-26T07:33:00;1.52;;;1.42;;
25972;SDS011;13765;51.166;4.466;2023-02-26T07:35:25;0.90;;;0.90;;
25972;SDS011;13765;51.166;4.466;2023-02-26T07:37:53;2.58;;;1.48;;
25972;SDS011;13765;51.166;4.466;2023-02-26T07:40:19;4.57;;;1.02;;
25972;SDS011;13765;51.166;4.466;2023-02-26T07:42:47;2.05;;;1.30;;
25972;SDS011;13765;51.166;4.466;2023-02-26T07:45:12;2.03;;;1.65;;
25972;SDS011;13765;51.166;4.466;2023-02-26T07:47:38;0.90;;;0.90;;
25972;SDS011;13765;51.166;4.466;2023-02-26T07:50:04;2.85;;;1.30;;
25972;SDS011;13765;51.166;4.466;2023-02-26T07:52:30;4.97;;;1.75;;
25972;SDS011;13765;51.166;4.466;2023-02-26T07:54:55;6.25;;;2.25;;
25972;SDS011;13765;51.166;4.466;2023-02-26T07:57:23;1.23;;;1.10;;
25972;SDS011;13765;51.166;4.466;2023-02-26T07:59:49;2.40;;;1.35;;
25972;SDS011;13765;51.166;4.466;2023-02-26T08:02:17;1.02;;;1.02;;
25972;SDS011;13765;51.166;4.466;2023-02-26T08:04:42;1.02;;;1.02;;
25972;SDS011;13765;51.166;4.466;2023-02-26T08:07:08;4.45;;;1.40;;
25972;SDS011;13765;51.166;4.466;2023-02-26T08:09:34;4.13;;;1.85;;
25972;SDS011;13765;51.166;4.466;2023-02-26T08:12:00;2.83;;;1.45;;
25972;SDS011;13765;51.166;4.466;2023-02-26T08:14:28;9.05;;;1.70;;
25972;SDS011;13765;51.166;4.466;2023-02-26T08:16:54;1.10;;;1.00;;
25972;SDS011;13765;51.166;4.466;2023-02-26T08:19:19;5.40;;;1.52;;
25972;SDS011;13765;51.166;4.466;2023-02-26T08:21:45;4.47;;;1.42;;
25972;SDS011;13765;51.166;4.466;2023-02-26T08:24:11;7.25;;;1.80;;
25972;SDS011;13765;51.166;4.466;2023-02-26T08:26:37;5.15;;;1.35;;
25972;SDS011;13765;51.166;4.466;2023-02-26T08:29:03;6.20;;;1.45;;
25972;SDS011;13765;51.166;4.466;2023-02-26T08:31:31;5.32;;;1.77;;
25972;SDS011;13765;51.166;4.466;2023-02-26T08:33:59;1.98;;;1.27;;
25972;SDS011;13765;51.166;4.466;2023-02-26T08:36:28;2.30;;;1.48;;
25972;SDS011;13765;51.166;4.466;2023-02-26T08:38:54;1.42;;;1.30;;
25972;SDS011;13765;51.166;4.466;2023-02-26T08:41:19;1.95;;;1.30;;
25972;SDS011;13765;51.166;4.466;2023-02-26T08:43:46;4.13;;;1.75;;
25972;SDS011;13765;51.166;4.466;2023-02-26T08:46:12;2.75;;;1.27;;
25972;SDS011;13765;51.166;4.466;2023-02-26T08:48:38;1.23;;;1.10;;
25972;SDS011;13765;51.166;4.466;2023-02-26T08:51:03;1.33;;;1.23;;
25972;SDS011;13765;51.166;4.466;2023-02-26T08:53:29;4.80;;;1.30;;
25972;SDS011;13765;51.166;4.466;2023-02-26T08:55:55;0.90;;;0.90;;
25972;SDS011;13765;51.166;4.466;2023-02-26T08:58:20;1.98;;;1.10;;
25972;SDS011;13765;51.166;4.466;2023-02-26T09:00:46;3.00;;;1.35;;
25972;SDS011;13765;51.166;4.466;2023-02-26T09:03:15;1.63;;;1.52;;
25972;SDS011;13765;51.166;4.466;2023-02-26T09:05:45;2.22;;;1.10;;
25972;SDS011;13765;51.166;4.466;2023-02-26T09:08:13;1.83;;;1.25;;
25972;SDS011;13765;51.166;4.466;2023-02-26T09:10:40;5.03;;;2.00;;
25972;SDS011;13765;51.166;4.466;2023-02-26T09:13:10;4.45;;;2.50;;
25972;SDS011;13765;51.166;4.466;2023-02-26T09:15:36;10.38;;;1.88;;
25972;SDS011;13765;51.166;4.466;2023-02-26T09:18:04;1.27;;;1.17;;
25972;SDS011;13765;51.166;4.466;2023-02-26T09:20:30;0.82;;;0.82;;
25972;SDS011;13765;51.166;4.466;2023-02-26T09:22:58;2.50;;;1.40;;
25972;SDS011;13765;51.166;4.466;2023-02-26T09:25:24;1.35;;;0.98;;
25972;SDS011;13765;51.166;4.466;2023-02-26T09:27:52;1.15;;;1.10;;
25972;SDS011;13765;51.166;4.466;2023-02-26T09:30:18;6.15;;;1.15;;
25972;SDS011;13765;51.166;4.466;2023-02-26T09:32:43;12.18;;;1.92;;
25972;SDS011;13765;51.166;4.466;2023-02-26T09:35:11;0.95;;;0.95;;
25972;SDS011;13765;51.166;4.466;2023-02-26T09:37:37;8.15;;;1.50;;
25972;SDS011;13765;51.166;4.466;2023-02-26T09:40:05;4.57;;;1.73;;
25972;SDS011;13765;51.166;4.466;2023-02-26T09:45:30;3.13;;;1.05;;
25972;SDS011;13765;51.166;4.466;2023-02-26T09:48:03;11.52;;;3.28;;
25972;SDS011;13765;51.166;4.466;2023-02-26T09:53:17;1.65;;;1.45;;
25972;SDS011;13765;51.166;4.466;2023-02-26T09:56:03;0.77;;;0.77;;
25972;SDS011;13765;51.166;4.466;2023-02-26T09:58:38;3.78;;;1.25;;
25972;SDS011;13765;51.166;4.466;2023-02-26T10:01:20;2.67;;;1.17;;
25972;SDS011;13765;51.166;4.466;2023-02-26T10:04:10;5.57;;;1.77;;
25972;SDS011;13765;51.166;4.466;2023-02-26T10:12:52;1.95;;;0.88;;
25972;SDS011;13765;51.166;4.466;2023-02-26T10:15:20;1.17;;;1.05;;
25972;SDS011;13765;51.166;4.466;2023-02-26T10:23:45;1.08;;;0.90;;
25972;SDS011;13765;51.166;4.466;2023-02-26T10:26:22;7.28;;;0.80;;
25972;SDS011;13765;51.166;4.466;2023-02-26T10:31:43;2.28;;;1.27;;
25972;SDS011;13765;51.166;4.466;2023-02-26T10:39:49;3.38;;;1.60;;
25972;SDS011;13765;51.166;4.466;2023-02-26T10:42:37;3.38;;;1.48;;
25972;SDS011;13765;51.166;4.466;2023-02-26T10:45:24;4.60;;;1.50;;
25972;SDS011;13765;51.166;4.466;2023-02-26T10:50:54;1.10;;;1.00;;
25972;SDS011;13765;51.166;4.466;2023-02-26T10:53:25;0.80;;;0.80;;
25972;SDS011;13765;51.166;4.466;2023-02-26T10:56:05;0.80;;;0.80;;
25972;SDS011;13765;51.166;4.466;2023-02-26T10:58:35;4.25;;;1.48;;
25972;SDS011;13765;51.166;4.466;2023-02-26T11:01:03;2.78;;;1.42;;
25972;SDS011;13765;51.166;4.466;2023-02-26T11:03:38;1.98;;;1.10;;
25972;SDS011;13765;51.166;4.466;2023-02-26T11:06:08;1.48;;;1.00;;
25972;SDS011;13765;51.166;4.466;2023-02-26T11:08:44;1.10;;;1.10;;
25972;SDS011;13765;51.166;4.466;2023-02-26T11:11:33;1.40;;;0.93;;
25972;SDS011;13765;51.166;4.466;2023-02-26T11:14:05;0.73;;;0.73;;
25972;SDS011;13765;51.166;4.466;2023-02-26T11:16:32;2.13;;;1.00;;
25972;SDS011;13765;51.166;4.466;2023-02-26T11:18:59;1.05;;;0.82;;
25972;SDS011;13765;51.166;4.466;2023-02-26T11:21:29;0.80;;;0.80;;
25972;SDS011;13765;51.166;4.466;2023-02-26T11:24:04;2.35;;;1.35;;
25972;SDS011;13765;51.166;4.466;2023-02-26T11:26:36;4.78;;;1.50;;
25972;SDS011;13765;51.166;4.466;2023-02-26T11:29:11;3.17;;;1.25;;
25972;SDS011;13765;51.166;4.466;2023-02-26T11:31:42;4.40;;;1.60;;
25972;SDS011;13765;51.166;4.466;2023-02-26T11:34:10;1.65;;;1.13;;
25972;SDS011;13765;51.166;4.466;2023-02-26T11:36:38;4.60;;;1.17;;
25972;SDS011;13765;51.166;4.466;2023-02-26T11:39:07;1.35;;;1.02;;
25972;SDS011;13765;51.166;4.466;2023-02-26T11:44:06;0.80;;;0.80;;
25972;SDS011;13765;51.166;4.466;2023-02-26T11:49:13;3.55;;;1.30;;
25972;SDS011;13765;51.166;4.466;2023-02-26T11:51:45;1.52;;;1.00;;
25972;SDS011;13765;51.166;4.466;2023-02-26T11:54:24;0.90;;;0.90;;
25972;SDS011;13765;51.166;4.466;2023-02-26T11:56:59;1.35;;;1.00;;
25972;SDS011;13765;51.166;4.466;2023-02-26T11:59:32;3.78;;;1.13;;
25972;SDS011;13765;51.166;4.466;2023-02-26T12:02:09;1.77;;;0.80;;
25972;SDS011;13765;51.166;4.466;2023-02-26T12:04:37;2.55;;;1.17;;
25972;SDS011;13765;51.166;4.466;2023-02-26T12:07:07;1.58;;;1.15;;
25972;SDS011;13765;51.166;4.466;2023-02-26T12:09:40;1.45;;;1.10;;
25972;SDS011;13765;51.166;4.466;2023-02-26T12:12:13;1.48;;;1.08;;
25972;SDS011;13765;51.166;4.466;2023-02-26T12:17:31;0.80;;;0.80;;
25972;SDS011;13765;51.166;4.466;2023-02-26T12:20:34;6.32;;;1.02;;
25972;SDS011;13765;51.166;4.466;2023-02-26T12:53:11;2.80;;;1.08;;
25972;SDS011;13765;51.166;4.466;2023-02-26T12:58:37;1.38;;;0.80;;
25972;SDS011;13765;51.166;4.466;2023-02-26T13:15:43;1.77;;;0.90;;
25972;SDS011;13765;51.166;4.466;2023-02-26T13:21:01;0.70;;;0.70;;
25972;SDS011;13765;51.166;4.466;2023-02-26T13:23:48;4.13;;;0.85;;
25972;SDS011;13765;51.166;4.466;2023-02-26T13:26:22;1.10;;;0.85;;
25972;SDS011;13765;51.166;4.466;2023-02-26T13:31:42;1.70;;;1.13;;
25972;SDS011;13765;51.166;4.466;2023-02-26T13:34:19;0.70;;;0.70;;
25972;SDS011;13765;51.166;4.466;2023-02-26T13:37:05;1.95;;;0.98;;
25972;SDS011;13765;51.166;4.466;2023-02-26T13:39:51;1.17;;;1.00;;
25972;SDS011;13765;51.166;4.466;2023-02-26T13:42:40;0.60;;;0.60;;
25972;SDS011;13765;51.166;4.466;2023-02-26T13:45:17;1.77;;;1.08;;
25972;SDS011;13765;51.166;4.466;2023-02-26T13:53:47;5.30;;;1.40;;
25972;SDS011;13765;51.166;4.466;2023-02-26T13:56:21;3.00;;;1.13;;
25972;SDS011;13765;51.166;4.466;2023-02-26T14:01:48;5.35;;;1.35;;
25972;SDS011;13765;51.166;4.466;2023-02-26T14:06:53;3.25;;;1.02;;
25972;SDS011;13765;51.166;4.466;2023-02-26T14:09:54;3.03;;;1.00;;
25972;SDS011;13765;51.166;4.466;2023-02-26T14:12:31;1.40;;;1.08;;
25972;SDS011;13765;51.166;4.466;2023-02-26T14:17:40;5.03;;;1.35;;
25972;SDS011;13765;51.166;4.466;2023-02-26T14:22:46;6.53;;;1.20;;
25972;SDS011;13765;51.166;4.466;2023-02-26T14:25:41;0.80;;;0.80;;
25972;SDS011;13765;51.166;4.466;2023-02-26T14:28:31;3.60;;;1.33;;
25972;SDS011;13765;51.166;4.466;2023-02-26T14:31:12;1.55;;;0.80;;
25972;SDS011;13765;51.166;4.466;2023-02-26T14:36:19;1.40;;;0.80;;
25972;SDS011;13765;51.166;4.466;2023-02-26T14:38:55;1.63;;;0.95;;
25972;SDS011;13765;51.166;4.466;2023-02-26T14:44:05;6.05;;;1.10;;
25972;SDS011;13765;51.166;4.466;2023-02-26T14:46:40;0.52;;;0.52;;
25972;SDS011;13765;51.166;4.466;2023-02-26T14:49:10;3.35;;;0.98;;
25972;SDS011;13765;51.166;4.466;2023-02-26T15:03:47;0.90;;;0.82;;
25972;SDS011;13765;51.166;4.466;2023-02-26T15:12:20;1.00;;;1.00;;
25972;SDS011;13765;51.166;4.466;2023-02-26T15:17:57;1.85;;;1.05;;
25972;SDS011;13765;51.166;4.466;2023-02-26T15:20:29;3.08;;;1.20;;
25972;SDS011;13765;51.166;4.466;2023-02-26T15:26:07;4.65;;;1.27;;
25972;SDS011;13765;51.166;4.466;2023-02-26T15:28:43;0.70;;;0.70;;
25972;SDS011;13765;51.166;4.466;2023-02-26T15:31:10;19.95;;;1.98;;
25972;SDS011;13765;51.166;4.466;2023-02-26T15:33:41;3.92;;;1.15;;
25972;SDS011;13765;51.166;4.466;2023-02-26T15:36:08;2.42;;;1.63;;
25972;SDS011;13765;51.166;4.466;2023-02-26T15:38:45;2.15;;;1.30;;
25972;SDS011;13765;51.166;4.466;2023-02-26T15:41:13;1.90;;;1.38;;
25972;SDS011;13765;51.166;4.466;2023-02-26T15:43:40;2.42;;;1.25;;
25972;SDS011;13765;51.166;4.466;2023-02-26T15:46:11;0.90;;;0.90;;
25972;SDS011;13765;51.166;4.466;2023-02-26T15:48:39;3.45;;;2.13;;
25972;SDS011;13765;51.166;4.466;2023-02-26T15:51:09;1.98;;;0.93;;
25972;SDS011;13765;51.166;4.466;2023-02-26T15:53:41;1.05;;;0.80;;
25972;SDS011;13765;51.166;4.466;2023-02-26T15:56:16;3.22;;;1.15;;
25972;SDS011;13765;51.166;4.466;2023-02-26T15:58:58;2.92;;;1.40;;
25972;SDS011;13765;51.166;4.466;2023-02-26T16:01:29;1.42;;;1.02;;
25972;SDS011;13765;51.166;4.466;2023-02-26T16:03:56;2.03;;;1.13;;
25972;SDS011;13765;51.166;4.466;2023-02-26T16:06:28;2.53;;;1.17;;
25972;SDS011;13765;51.166;4.466;2023-02-26T16:08:56;1.25;;;1.15;;
25972;SDS011;13765;51.166;4.466;2023-02-26T16:11:24;2.40;;;0.93;;
25972;SDS011;13765;51.166;4.466;2023-02-26T16:13:57;1.50;;;1.00;;
25972;SDS011;13765;51.166;4.466;2023-02-26T16:16:27;2.05;;;1.10;;
25972;SDS011;13765;51.166;4.466;2023-02-26T16:19:05;4.47;;;1.17;;
25972;SDS011;13765;51.166;4.466;2023-02-26T16:21:36;2.85;;;1.15;;
25972;SDS011;13765;51.166;4.466;2023-02-26T16:24:05;0.80;;;0.80;;
25972;SDS011;13765;51.166;4.466;2023-02-26T16:26:36;2.60;;;1.20;;
25972;SDS011;13765;51.166;4.466;2023-02-26T16:29:22;1.65;;;1.25;;
25972;SDS011;13765;51.166;4.466;2023-02-26T16:31:51;1.27;;;1.13;;
25972;SDS011;13765;51.166;4.466;2023-02-26T16:34:21;1.13;;;1.00;;
25972;SDS011;13765;51.166;4.466;2023-02-26T16:36:54;2.42;;;1.25;;
25972;SDS011;13765;51.166;4.466;2023-02-26T16:39:24;1.08;;;0.98;;
25972;SDS011;13765;51.166;4.466;2023-02-26T16:42:02;2.17;;;1.05;;
25972;SDS011;13765;51.166;4.466;2023-02-26T16:47:33;1.20;;;1.10;;
25972;SDS011;13765;51.166;4.466;2023-02-26T16:50:04;0.90;;;0.90;;
25972;SDS011;13765;51.166;4.466;2023-02-26T16:52:33;0.93;;;0.93;;
25972;SDS011;13765;51.166;4.466;2023-02-26T16:55:01;3.65;;;1.05;;
25972;SDS011;13765;51.166;4.466;2023-02-26T16:57:34;1.00;;;1.00;;
25972;SDS011;13765;51.166;4.466;2023-02-26T17:00:10;1.73;;;1.00;;
25972;SDS011;13765;51.166;4.466;2023-02-26T17:02:44;1.23;;;1.13;;
25972;SDS011;13765;51.166;4.466;2023-02-26T17:05:25;1.17;;;0.93;;
25972;SDS011;13765;51.166;4.466;2023-02-26T17:07:59;3.13;;;1.05;;
25972;SDS011;13765;51.166;4.466;2023-02-26T17:10:38;0.90;;;0.90;;
25972;SDS011;13765;51.166;4.466;2023-02-26T17:15:50;10.50;;;1.15;;
25972;SDS011;13765;51.166;4.466;2023-02-26T17:18:18;1.33;;;1.10;;
25972;SDS011;13765;51.166;4.466;2023-02-26T17:20:44;1.80;;;1.13;;
25972;SDS011;13765;51.166;4.466;2023-02-26T17:23:13;3.85;;;1.77;;
25972;SDS011;13765;51.166;4.466;2023-02-26T17:25:41;0.70;;;0.70;;
25972;SDS011;13765;51.166;4.466;2023-02-26T17:28:15;0.60;;;0.60;;
25972;SDS011;13765;51.166;4.466;2023-02-26T17:30:45;2.85;;;1.05;;
25972;SDS011;13765;51.166;4.466;2023-02-26T17:33:11;1.10;;;0.88;;
25972;SDS011;13765;51.166;4.466;2023-02-26T17:35:42;1.48;;;0.95;;
25972;SDS011;13765;51.166;4.466;2023-02-26T17:38:12;4.80;;;1.70;;
25972;SDS011;13765;51.166;4.466;2023-02-26T17:40:40;9.32;;;1.55;;
25972;SDS011;13765;51.166;4.466;2023-02-26T17:43:07;2.10;;;1.15;;
25972;SDS011;13765;51.166;4.466;2023-02-26T17:45:34;1.60;;;1.02;;
25972;SDS011;13765;51.166;4.466;2023-02-26T17:48:04;2.55;;;1.15;;
25972;SDS011;13765;51.166;4.466;2023-02-26T17:53:19;4.43;;;1.30;;
25972;SDS011;13765;51.166;4.466;2023-02-26T17:55:49;4.28;;;1.65;;
25972;SDS011;13765;51.166;4.466;2023-02-26T17:58:18;4.55;;;2.00;;
25972;SDS011;13765;51.166;4.466;2023-02-26T18:00:53;7.95;;;2.10;;
25972;SDS011;13765;51.166;4.466;2023-02-26T18:03:19;3.80;;;1.85;;
25972;SDS011;13765;51.166;4.466;2023-02-26T18:05:48;5.10;;;2.00;;
25972;SDS011;13765;51.166;4.466;2023-02-26T18:08:22;5.03;;;1.58;;
25972;SDS011;13765;51.166;4.466;2023-02-26T18:10:50;3.67;;;2.35;;
25972;SDS011;13765;51.166;4.466;2023-02-26T18:13:17;2.65;;;1.52;;
25972;SDS011;13765;51.166;4.466;2023-02-26T18:15:45;5.28;;;1.88;;
25972;SDS011;13765;51.166;4.466;2023-02-26T18:18:12;9.75;;;2.55;;
25972;SDS011;13765;51.166;4.466;2023-02-26T18:20:39;1.35;;;1.23;;
25972;SDS011;13765;51.166;4.466;2023-02-26T18:23:05;6.75;;;1.80;;
25972;SDS011;13765;51.166;4.466;2023-02-26T18:25:31;2.55;;;1.67;;
25972;SDS011;13765;51.166;4.466;2023-02-26T18:27:59;1.75;;;1.48;;
25972;SDS011;13765;51.166;4.466;2023-02-26T18:30:30;1.63;;;1.42;;
25972;SDS011;13765;51.166;4.466;2023-02-26T18:32:57;5.53;;;1.70;;
25972;SDS011;13765;51.166;4.466;2023-02-26T18:35:24;4.35;;;1.83;;
25972;SDS011;13765;51.166;4.466;2023-02-26T18:37:51;1.80;;;1.45;;